createdAt,value
2022-08-22T00:02:56.261Z,0.00
2022-08-22T00:03:31.688Z,0.00
2022-08-22T00:04:06.904Z,0.00
2022-08-22T00:05:06.939Z,0.00
2022-08-22T00:06:07.858Z,0.00
2022-08-22T00:07:07.060Z,0.00
2022-08-22T00:08:06.890Z,0.00
2022-08-22T00:09:06.824Z,0.00
2022-08-22T00:10:06.874Z,0.00
2022-08-22T00:11:06.884Z,0.00
2022-08-22T00:12:06.836Z,0.00
2022-08-22T00:13:06.836Z,0.00
2022-08-22T00:14:06.858Z,0.00
2022-08-22T00:15:06.799Z,0.00
2022-08-22T00:16:06.742Z,0.00
2022-08-22T00:17:06.815Z,0.00
2022-08-22T00:18:06.789Z,0.00
2022-08-22T00:19:06.741Z,0.00
2022-08-22T00:20:06.888Z,0.00
2022-08-22T00:21:08.852Z,0.00
2022-08-22T00:22:06.703Z,0.00
2022-08-22T00:23:06.740Z,0.00
2022-08-22T00:24:07.179Z,0.00
2022-08-22T00:25:06.862Z,0.00
2022-08-22T00:26:06.768Z,0.00
2022-08-22T00:27:06.693Z,0.00
2022-08-22T00:28:06.703Z,0.00
2022-08-22T00:29:07.208Z,0.00
2022-08-22T00:30:07.575Z,0.00
2022-08-22T00:31:06.583Z,0.00
2022-08-22T00:32:06.719Z,0.00
2022-08-22T00:33:06.754Z,0.00
2022-08-22T00:34:06.797Z,0.00
2022-08-22T00:35:06.614Z,0.00
2022-08-22T00:36:06.556Z,0.00
2022-08-22T00:37:06.587Z,0.00
2022-08-22T00:38:06.658Z,0.00
2022-08-22T00:39:06.616Z,0.00
2022-08-22T00:40:06.751Z,0.00
2022-08-22T00:41:06.496Z,0.00
2022-08-22T00:42:06.455Z,0.00
2022-08-22T00:43:06.579Z,0.00
2022-08-22T00:44:07.481Z,0.00
2022-08-22T00:45:06.502Z,0.00
2022-08-22T00:46:06.462Z,0.00
2022-08-22T00:47:06.543Z,0.00
2022-08-22T00:48:06.404Z,0.00
2022-08-22T00:49:06.655Z,0.00
2022-08-22T00:50:06.612Z,0.00
2022-08-22T00:51:06.424Z,0.00
2022-08-22T00:52:06.412Z,0.00
2022-08-22T00:53:06.312Z,0.00
2022-08-22T00:54:06.886Z,0.00
2022-08-22T00:55:06.312Z,0.00
2022-08-22T00:56:06.341Z,0.00
2022-08-22T00:57:06.295Z,0.00
2022-08-22T00:58:06.276Z,0.00
2022-08-22T00:59:23.342Z,0.00
2022-08-22T01:00:06.243Z,0.00
2022-08-22T01:01:06.280Z,0.00
2022-08-22T01:02:06.292Z,0.00
2022-08-22T01:03:06.223Z,0.00
2022-08-22T01:04:06.219Z,0.00
2022-08-22T01:05:06.208Z,0.00
2022-08-22T01:06:06.438Z,0.00
2022-08-22T01:07:06.196Z,0.00
2022-08-22T01:08:06.238Z,0.00
2022-08-22T01:09:06.217Z,0.00
2022-08-22T01:10:06.160Z,0.00
2022-08-22T01:11:07.036Z,0.00
2022-08-22T01:12:06.117Z,0.00
2022-08-22T01:13:06.113Z,0.00
2022-08-22T01:14:06.961Z,0.00
2022-08-22T01:15:06.095Z,0.00
2022-08-22T01:16:06.098Z,0.00
2022-08-22T01:17:06.049Z,0.00
2022-08-22T01:18:06.063Z,0.00
2022-08-22T01:19:06.120Z,0.00
2022-08-22T01:20:06.060Z,0.00
2022-08-22T01:21:06.021Z,0.00
2022-08-22T01:22:05.993Z,0.00
2022-08-22T01:23:05.973Z,0.00
2022-08-22T01:24:05.990Z,0.00
2022-08-22T01:25:05.978Z,0.00
2022-08-22T01:26:06.003Z,0.00
2022-08-22T01:27:05.983Z,0.00
2022-08-22T01:28:05.938Z,0.00
2022-08-22T01:29:05.945Z,0.00
2022-08-22T01:30:05.956Z,0.00
2022-08-22T01:31:05.907Z,0.00
2022-08-22T01:32:05.938Z,0.00
2022-08-22T01:33:05.890Z,0.00
2022-08-22T01:34:05.893Z,0.00
2022-08-22T01:35:05.892Z,0.00
2022-08-22T01:36:05.851Z,0.00
2022-08-22T01:37:05.823Z,0.00
2022-08-22T01:38:05.879Z,0.00
2022-08-22T01:39:05.817Z,0.00
2022-08-22T01:40:05.880Z,0.00
2022-08-22T01:41:05.797Z,0.00
2022-08-22T01:42:05.796Z,0.00
2022-08-22T01:43:05.755Z,0.00
2022-08-22T01:44:05.783Z,0.00
2022-08-22T01:45:05.741Z,0.00
2022-08-22T01:46:05.716Z,0.00
2022-08-22T01:47:05.720Z,0.00
2022-08-22T01:48:05.718Z,0.00
2022-08-22T01:49:05.689Z,0.00
2022-08-22T01:50:05.735Z,0.00
2022-08-22T01:51:05.669Z,0.00
2022-08-22T01:52:05.751Z,0.00
2022-08-22T01:53:05.681Z,0.00
2022-08-22T01:54:06.213Z,0.00
2022-08-22T01:55:05.622Z,0.00
2022-08-22T01:56:05.647Z,0.00
2022-08-22T01:57:05.595Z,0.00
2022-08-22T01:58:06.217Z,0.00
2022-08-22T01:59:05.615Z,0.00
2022-08-22T02:00:05.574Z,0.00
2022-08-22T02:01:05.594Z,0.00
2022-08-22T02:02:05.600Z,0.00
2022-08-22T02:03:05.541Z,0.00
2022-08-22T02:04:05.547Z,0.00
2022-08-22T02:05:05.541Z,0.00
2022-08-22T02:06:05.494Z,0.00
2022-08-22T02:07:05.486Z,0.00
2022-08-22T02:08:05.521Z,0.00
2022-08-22T02:09:05.510Z,0.00
2022-08-22T02:10:05.463Z,0.00
2022-08-22T02:11:05.494Z,0.00
2022-08-22T02:12:05.450Z,0.00
2022-08-22T02:13:05.450Z,0.00
2022-08-22T02:14:06.170Z,0.00
2022-08-22T02:15:05.410Z,0.00
2022-08-22T02:16:05.449Z,0.00
2022-08-22T02:17:05.386Z,0.00
2022-08-22T02:18:05.455Z,0.00
2022-08-22T02:19:05.401Z,0.00
2022-08-22T02:20:05.449Z,0.00
2022-08-22T02:21:05.354Z,0.00
2022-08-22T02:22:06.108Z,0.00
2022-08-22T02:23:05.316Z,0.00
2022-08-22T02:24:05.299Z,0.00
2022-08-22T02:25:09.002Z,0.00
2022-08-22T02:26:05.301Z,0.00
2022-08-22T02:27:05.264Z,0.00
2022-08-22T02:28:05.264Z,0.00
2022-08-22T02:29:05.317Z,0.00
2022-08-22T02:30:06.024Z,0.00
2022-08-22T02:31:08.857Z,0.00
2022-08-22T02:32:05.250Z,0.00
2022-08-22T02:33:05.219Z,0.00
2022-08-22T02:34:05.211Z,0.00
2022-08-22T02:35:05.199Z,0.00
2022-08-22T02:36:05.699Z,0.00
2022-08-22T02:37:05.164Z,0.00
2022-08-22T02:38:05.169Z,0.00
2022-08-22T02:39:05.713Z,0.00
2022-08-22T02:40:05.674Z,0.00
2022-08-22T02:41:05.353Z,0.00
2022-08-22T02:42:05.178Z,0.00
2022-08-22T02:43:05.084Z,0.00
2022-08-22T02:44:05.098Z,0.00
2022-08-22T02:45:05.069Z,0.00
2022-08-22T02:46:05.042Z,0.00
2022-08-22T02:47:05.038Z,0.00
2022-08-22T02:48:05.037Z,0.00
2022-08-22T02:49:05.022Z,0.00
2022-08-22T02:50:05.058Z,0.00
2022-08-22T02:51:05.691Z,0.00
2022-08-22T02:52:04.975Z,0.00
2022-08-22T02:53:04.986Z,0.00
2022-08-22T02:54:05.070Z,0.00
2022-08-22T02:55:04.953Z,0.00
2022-08-22T02:56:05.204Z,0.00
2022-08-22T02:57:04.934Z,0.00
2022-08-22T02:58:04.932Z,0.00
2022-08-22T02:59:04.908Z,0.00
2022-08-22T03:00:04.904Z,0.00
2022-08-22T03:01:05.090Z,0.00
2022-08-22T03:02:05.196Z,0.00
2022-08-22T03:03:04.894Z,0.00
2022-08-22T03:04:05.009Z,0.00
2022-08-22T03:05:04.856Z,0.00
2022-08-22T03:06:04.978Z,0.00
2022-08-22T03:07:04.838Z,0.00
2022-08-22T03:08:04.885Z,0.00
2022-08-22T03:09:04.812Z,0.00
2022-08-22T03:10:04.796Z,0.00
2022-08-22T03:11:05.658Z,0.00
2022-08-22T03:12:04.769Z,0.00
2022-08-22T03:13:04.756Z,0.00
2022-08-22T03:14:04.819Z,0.00
2022-08-22T03:15:04.740Z,0.00
2022-08-22T03:16:04.728Z,0.00
2022-08-22T03:17:04.704Z,0.00
2022-08-22T03:18:04.704Z,0.00
2022-08-22T03:19:04.670Z,0.00
2022-08-22T03:20:04.717Z,0.00
2022-08-22T03:21:04.650Z,0.00
2022-08-22T03:22:04.639Z,0.00
2022-08-22T03:23:04.883Z,0.00
2022-08-22T03:24:04.672Z,0.00
2022-08-22T03:25:04.617Z,0.00
2022-08-22T03:26:07.696Z,0.00
2022-08-22T03:27:04.618Z,0.00
2022-08-22T03:28:04.707Z,0.00
2022-08-22T03:29:04.554Z,0.00
2022-08-22T03:30:04.540Z,0.00
2022-08-22T03:31:04.626Z,0.00
2022-08-22T03:32:04.780Z,0.00
2022-08-22T03:33:04.538Z,0.00
2022-08-22T03:34:04.758Z,0.00
2022-08-22T03:35:04.668Z,0.00
2022-08-22T03:36:04.539Z,0.00
2022-08-22T03:37:04.475Z,0.00
2022-08-22T03:38:04.579Z,0.00
2022-08-22T03:39:17.193Z,0.00
2022-08-22T03:40:04.510Z,0.00
2022-08-22T03:41:04.557Z,0.00
2022-08-22T03:42:04.410Z,0.00
2022-08-22T03:43:04.409Z,0.00
2022-08-22T03:44:04.475Z,4.00
2022-08-22T03:45:06.932Z,4.00
2022-08-22T03:46:04.406Z,4.00
2022-08-22T03:47:04.359Z,0.00
2022-08-22T03:48:04.360Z,4.00
2022-08-22T03:49:04.390Z,4.00
2022-08-22T03:50:04.448Z,4.00
2022-08-22T03:51:04.315Z,8.00
2022-08-22T03:52:04.297Z,8.00
2022-08-22T03:53:04.302Z,8.00
2022-08-22T03:54:04.328Z,8.00
2022-08-22T03:55:04.306Z,12.00
2022-08-22T03:56:04.329Z,16.00
2022-08-22T03:57:04.270Z,16.00
2022-08-22T03:58:05.193Z,20.00
2022-08-22T03:59:10.224Z,28.00
2022-08-22T04:00:05.506Z,28.00
2022-08-22T04:01:04.261Z,32.00
2022-08-22T04:02:04.238Z,40.00
2022-08-22T04:03:05.167Z,44.00
2022-08-22T04:04:04.175Z,52.00
2022-08-22T04:05:04.154Z,60.00
2022-08-22T04:06:04.401Z,72.00
2022-08-22T04:07:04.150Z,84.00
2022-08-22T04:08:04.180Z,96.00
2022-08-22T04:09:04.249Z,108.00
2022-08-22T04:10:04.101Z,124.00
2022-08-22T04:11:04.138Z,140.00
2022-08-22T04:12:04.091Z,156.00
2022-08-22T04:13:04.106Z,172.00
2022-08-22T04:14:04.135Z,192.00
2022-08-22T04:15:04.054Z,212.00
2022-08-22T04:16:04.043Z,232.00
2022-08-22T04:17:04.701Z,260.00
2022-08-22T04:18:04.010Z,288.00
2022-08-22T04:19:04.006Z,320.00
2022-08-22T04:20:04.167Z,348.00
2022-08-22T04:21:03.992Z,376.00
2022-08-22T04:22:03.970Z,408.00
2022-08-22T04:23:03.960Z,436.00
2022-08-22T04:24:03.986Z,468.00
2022-08-22T04:25:07.846Z,500.00
2022-08-22T04:26:04.423Z,532.00
2022-08-22T04:27:03.916Z,576.00
2022-08-22T04:28:03.960Z,624.00
2022-08-22T04:29:03.935Z,676.00
2022-08-22T04:30:03.874Z,732.00
2022-08-22T04:31:03.888Z,788.00
2022-08-22T04:32:03.908Z,844.00
2022-08-22T04:33:04.697Z,896.00
2022-08-22T04:34:03.836Z,944.00
2022-08-22T04:35:03.826Z,988.00
2022-08-22T04:36:04.648Z,1028.00
2022-08-22T04:37:04.004Z,1056.00
2022-08-22T04:38:04.523Z,1080.00
2022-08-22T04:39:03.850Z,1100.00
2022-08-22T04:40:03.921Z,1116.00
2022-08-22T04:41:04.759Z,1140.00
2022-08-22T04:42:29.199Z,1168.00
2022-08-22T04:43:04.667Z,1196.00
2022-08-22T04:44:03.769Z,1232.00
2022-08-22T04:45:03.741Z,1272.00
2022-08-22T04:46:05.016Z,1308.00
2022-08-22T04:47:03.685Z,1352.00
2022-08-22T04:48:03.674Z,1392.00
2022-08-22T04:49:03.752Z,1448.00
2022-08-22T04:50:03.723Z,1496.00
2022-08-22T04:51:03.845Z,1552.00
2022-08-22T04:52:03.680Z,1604.00
2022-08-22T04:53:03.626Z,1656.00
2022-08-22T04:54:03.607Z,1704.00
2022-08-22T04:55:03.642Z,1760.00
2022-08-22T04:56:07.347Z,1816.00
2022-08-22T04:57:03.600Z,1880.00
2022-08-22T04:58:06.738Z,1940.00
2022-08-22T04:59:03.556Z,1992.00
2022-08-22T05:00:03.575Z,2036.00
2022-08-22T05:01:03.596Z,2088.00
2022-08-22T05:02:03.711Z,2140.00
2022-08-22T05:03:03.513Z,2200.00
2022-08-22T05:04:03.515Z,2260.00
2022-08-22T05:05:03.501Z,2328.00
2022-08-22T05:06:03.483Z,2400.00
2022-08-22T05:07:03.518Z,2476.00
2022-08-22T05:08:03.545Z,2552.00
2022-08-22T05:09:03.458Z,2636.00
2022-08-22T05:10:11.668Z,2724.00
2022-08-22T05:11:03.462Z,2828.00
2022-08-22T05:12:03.431Z,2932.00
2022-08-22T05:13:04.107Z,3032.00
2022-08-22T05:14:03.437Z,3124.00
2022-08-22T05:15:03.389Z,3208.00
2022-08-22T05:16:03.373Z,3280.00
2022-08-22T05:17:03.623Z,3352.00
2022-08-22T05:18:03.368Z,3428.00
2022-08-22T05:19:03.347Z,3488.00
2022-08-22T05:20:03.363Z,3532.00
2022-08-22T05:21:03.353Z,3556.00
2022-08-22T05:22:03.287Z,3572.00
2022-08-22T05:23:05.837Z,3608.00
2022-08-22T05:24:03.272Z,3664.00
2022-08-22T05:25:03.266Z,3712.00
2022-08-22T05:26:03.330Z,3756.00
2022-08-22T05:27:03.538Z,3800.00
2022-08-22T05:28:03.234Z,3852.00
2022-08-22T05:31:30.303Z,3912.00
2022-08-22T05:32:31.259Z,3908.00
2022-08-22T05:33:31.350Z,3880.00
2022-08-22T05:34:31.244Z,3852.00
2022-08-22T05:35:31.224Z,3832.00
2022-08-22T05:36:31.282Z,3828.00
2022-08-22T05:37:31.355Z,3820.00
2022-08-22T05:38:31.208Z,3836.00
2022-08-22T05:39:31.358Z,3840.00
2022-08-22T05:40:31.414Z,3844.00
2022-08-22T05:41:31.187Z,3860.00
2022-08-22T05:42:31.797Z,3892.00
2022-08-22T05:43:31.210Z,3940.00
2022-08-22T05:44:31.142Z,3984.00
2022-08-22T05:45:31.113Z,4056.00
2022-08-22T05:46:31.153Z,4132.00
2022-08-22T05:47:31.180Z,4232.00
2022-08-22T05:48:31.161Z,4320.00
2022-08-22T05:49:31.124Z,4276.00
2022-08-22T05:50:31.090Z,4196.00
2022-08-22T05:51:31.042Z,4176.00
2022-08-22T05:52:31.070Z,4232.00
2022-08-22T05:53:31.735Z,4288.00
2022-08-22T05:54:33.531Z,4332.00
2022-08-22T05:55:31.097Z,4396.00
2022-08-22T05:56:31.031Z,4444.00
2022-08-22T05:57:30.983Z,4480.00
2022-08-22T05:58:30.974Z,4500.00
2022-08-22T05:59:30.966Z,4508.00
2022-08-22T06:00:31.094Z,4536.00
2022-08-22T06:01:31.355Z,4484.00
2022-08-22T06:02:30.933Z,4408.00
2022-08-22T06:03:30.913Z,4400.00
2022-08-22T06:04:31.201Z,4484.00
2022-08-22T06:05:31.265Z,4596.00
2022-08-22T06:06:30.949Z,4716.00
2022-08-22T06:07:30.871Z,4824.00
2022-08-22T06:08:30.976Z,4924.00
2022-08-22T06:09:35.310Z,4996.00
2022-08-22T06:10:30.907Z,5048.00
2022-08-22T06:11:34.087Z,5092.00
2022-08-22T06:12:31.360Z,5156.00
2022-08-22T06:13:31.116Z,5232.00
2022-08-22T06:14:31.080Z,5312.00
2022-08-22T06:15:31.147Z,5416.00
2022-08-22T06:16:31.942Z,5512.00
2022-08-22T06:17:31.282Z,5588.00
2022-08-22T06:18:31.267Z,5640.00
2022-08-22T06:19:30.932Z,5660.00
2022-08-22T06:20:31.220Z,5640.00
2022-08-22T06:21:38.679Z,5600.00
2022-08-22T06:22:30.940Z,5568.00
2022-08-22T06:23:31.089Z,5548.00
2022-08-22T06:24:31.254Z,5568.00
2022-08-22T06:25:30.855Z,5632.00
2022-08-22T06:26:30.994Z,5748.00
2022-08-22T06:27:31.389Z,5884.00
2022-08-22T06:28:31.135Z,5968.00
2022-08-22T06:29:31.101Z,5996.00
2022-08-22T06:30:31.203Z,6016.00
2022-08-22T06:31:30.932Z,6064.00
2022-08-22T06:32:58.309Z,6148.00
2022-08-22T06:33:31.044Z,6224.00
2022-08-22T06:34:30.951Z,6280.00
2022-08-22T06:35:31.029Z,6284.00
2022-08-22T06:36:30.823Z,6244.00
2022-08-22T06:37:30.854Z,6196.00
2022-08-22T06:38:30.905Z,6168.00
2022-08-22T06:39:30.574Z,6212.00
2022-08-22T06:40:30.663Z,6344.00
2022-08-22T06:41:30.784Z,6552.00
2022-08-22T06:42:31.022Z,6832.00
2022-08-22T06:43:30.868Z,7128.00
2022-08-22T06:44:30.747Z,7408.00
2022-08-22T06:45:30.863Z,7644.00
2022-08-22T06:46:30.936Z,7820.00
2022-08-22T06:47:30.865Z,7948.00
2022-08-22T06:48:30.910Z,8060.00
2022-08-22T06:49:30.750Z,8168.00
2022-08-22T06:50:30.674Z,8244.00
2022-08-22T06:51:30.645Z,8300.00
2022-08-22T06:52:31.549Z,8336.00
2022-08-22T06:53:30.673Z,8392.00
2022-08-22T06:54:34.284Z,8460.00
2022-08-22T06:55:30.428Z,8528.00
2022-08-22T06:56:30.707Z,8584.00
2022-08-22T06:57:30.527Z,8632.00
2022-08-22T06:58:33.839Z,8684.00
2022-08-22T06:59:30.647Z,8732.00
2022-08-22T07:00:30.431Z,8788.00
2022-08-22T07:01:30.613Z,8824.00
2022-08-22T07:02:30.752Z,8844.00
2022-08-22T07:03:30.258Z,8832.00
2022-08-22T07:04:30.568Z,8800.00
2022-08-22T07:05:30.196Z,8720.00
2022-08-22T07:06:30.293Z,8600.00
2022-08-22T07:07:30.177Z,8428.00
2022-08-22T07:08:30.200Z,8284.00
2022-08-22T07:09:30.164Z,8220.00
2022-08-22T07:10:30.172Z,8248.00
2022-08-22T07:11:30.144Z,8308.00
2022-08-22T07:12:30.169Z,8360.00
2022-08-22T07:13:30.139Z,8384.00
2022-08-22T07:14:30.104Z,8464.00
2022-08-22T07:15:30.110Z,8600.00
2022-08-22T07:16:30.083Z,8796.00
2022-08-22T07:17:30.068Z,9028.00
2022-08-22T07:18:30.087Z,9296.00
2022-08-22T07:19:30.047Z,9576.00
2022-08-22T07:20:30.036Z,9824.00
2022-08-22T07:21:30.023Z,10080.00
2022-08-22T07:22:30.016Z,10380.00
2022-08-22T07:23:30.005Z,10692.00
2022-08-22T07:24:30.032Z,10924.00
2022-08-22T07:25:29.967Z,11104.00
2022-08-22T07:26:29.970Z,11228.00
2022-08-22T07:27:29.958Z,11348.00
2022-08-22T07:28:37.016Z,11456.00
2022-08-22T07:29:29.935Z,11512.00
2022-08-22T07:30:29.958Z,11560.00
2022-08-22T07:31:31.783Z,11632.00
2022-08-22T07:32:29.908Z,11708.00
2022-08-22T07:33:29.894Z,11788.00
2022-08-22T07:34:29.873Z,11908.00
2022-08-22T07:35:29.864Z,12064.00
2022-08-22T07:36:31.980Z,12232.00
2022-08-22T07:37:29.866Z,12376.00
2022-08-22T07:38:29.841Z,12544.00
2022-08-22T07:39:29.828Z,12580.00
2022-08-22T07:40:29.807Z,12572.00
2022-08-22T07:41:29.801Z,12596.00
2022-08-22T07:42:30.339Z,12776.00
2022-08-22T07:43:29.781Z,12888.00
2022-08-22T07:44:29.765Z,12900.00
2022-08-22T07:45:29.754Z,12848.00
2022-08-22T07:46:29.735Z,12792.00
2022-08-22T07:47:29.735Z,12744.00
2022-08-22T07:48:29.751Z,12704.00
2022-08-22T07:49:29.715Z,12588.00
2022-08-22T07:50:29.710Z,12456.00
2022-08-22T07:51:29.680Z,12416.00
2022-08-22T07:52:29.663Z,12412.00
2022-08-22T07:53:29.664Z,12420.00
2022-08-22T07:54:29.679Z,12368.00
2022-08-22T07:55:29.642Z,12304.00
2022-08-22T07:56:29.629Z,12264.00
2022-08-22T07:57:29.624Z,12220.00
2022-08-22T07:58:29.602Z,12212.00
2022-08-22T07:59:29.600Z,12248.00
2022-08-22T08:00:29.634Z,12328.00
2022-08-22T08:01:29.647Z,12412.00
2022-08-22T08:02:29.561Z,12492.00
2022-08-22T08:03:29.608Z,12552.00
2022-08-22T08:04:29.539Z,12608.00
2022-08-22T08:05:29.532Z,12644.00
2022-08-22T08:06:29.552Z,12668.00
2022-08-22T08:07:29.510Z,12664.00
2022-08-22T08:08:29.484Z,12692.00
2022-08-22T08:09:29.480Z,12648.00
2022-08-22T08:10:29.467Z,12664.00
2022-08-22T08:11:29.717Z,12664.00
2022-08-22T08:12:29.493Z,12672.00
2022-08-22T08:13:29.435Z,12708.00
2022-08-22T08:14:29.425Z,12808.00
2022-08-22T08:15:29.418Z,12952.00
2022-08-22T08:16:29.402Z,13116.00
2022-08-22T08:17:32.162Z,13268.00
2022-08-22T08:18:29.407Z,13408.00
2022-08-22T08:19:29.370Z,13520.00
2022-08-22T08:20:29.351Z,13636.00
2022-08-22T08:21:29.360Z,13756.00
2022-08-22T08:22:29.336Z,13920.00
2022-08-22T08:23:29.329Z,14076.00
2022-08-22T08:24:29.362Z,14232.00
2022-08-22T08:25:29.303Z,14420.00
2022-08-22T08:26:29.300Z,14684.00
2022-08-22T08:27:29.283Z,15016.00
2022-08-22T08:28:29.265Z,15412.00
2022-08-22T08:29:29.255Z,15812.00
2022-08-22T08:30:29.268Z,16156.00
2022-08-22T08:31:29.224Z,16408.00
2022-08-22T08:32:29.261Z,16504.00
2022-08-22T08:33:29.209Z,16472.00
2022-08-22T08:34:29.186Z,16300.00
2022-08-22T08:35:29.178Z,16124.00
2022-08-22T08:36:29.217Z,15912.00
2022-08-22T08:37:29.158Z,15736.00
2022-08-22T08:38:29.151Z,15436.00
2022-08-22T08:39:35.231Z,15120.00
2022-08-22T08:40:29.135Z,14796.00
2022-08-22T08:41:29.125Z,14524.00
2022-08-22T08:42:29.177Z,14340.00
2022-08-22T08:43:29.095Z,14260.00
2022-08-22T08:44:29.085Z,14252.00
2022-08-22T08:45:29.129Z,14172.00
2022-08-22T08:46:29.054Z,14040.00
2022-08-22T08:47:29.127Z,13872.00
2022-08-22T08:48:29.080Z,13684.00
2022-08-22T08:49:29.020Z,13500.00
2022-08-22T08:50:29.024Z,13216.00
2022-08-22T08:51:29.013Z,13024.00
2022-08-22T08:52:28.987Z,13044.00
2022-08-22T08:53:28.976Z,12680.00
2022-08-22T08:54:29.541Z,12916.00
2022-08-22T08:55:28.957Z,13216.00
2022-08-22T08:56:29.012Z,13216.00
2022-08-22T08:57:29.024Z,13636.00
2022-08-22T08:58:28.925Z,14224.00
2022-08-22T08:59:28.913Z,14956.00
2022-08-22T09:00:30.374Z,14672.00
2022-08-22T09:01:28.929Z,15208.00
2022-08-22T09:02:34.984Z,17152.00
2022-08-22T09:03:31.111Z,18048.00
2022-08-22T09:04:28.912Z,19360.00
2022-08-22T09:05:28.843Z,19584.00
2022-08-22T09:06:29.488Z,19296.00
2022-08-22T09:07:29.769Z,19008.00
2022-08-22T09:08:28.805Z,20448.00
2022-08-22T09:09:28.797Z,22080.00
2022-08-22T09:40:29.919Z,22304.00
2022-08-22T09:40:34.884Z,18752.00
2022-08-22T09:41:34.880Z,18272.00
2022-08-22T09:42:34.867Z,18208.00
2022-08-22T09:43:34.856Z,18080.00
2022-08-22T09:44:34.874Z,18112.00
2022-08-22T09:45:35.015Z,17440.00
2022-08-22T09:46:36.958Z,16548.00
2022-08-22T09:47:34.832Z,16644.00
2022-08-22T09:48:34.792Z,16776.00
2022-08-22T09:49:34.783Z,16740.00
2022-08-22T09:50:34.782Z,16812.00
2022-08-22T09:51:34.834Z,16660.00
2022-08-22T09:52:36.924Z,16684.00
2022-08-22T09:53:34.747Z,16552.00
2022-08-22T09:54:34.725Z,16408.00
2022-08-22T09:55:35.434Z,16372.00
2022-08-22T09:56:34.720Z,16408.00
2022-08-22T09:57:34.758Z,16484.00
2022-08-22T09:58:37.699Z,16560.00
2022-08-22T09:59:34.737Z,16416.00
2022-08-22T10:00:34.687Z,16684.00
2022-08-22T10:01:34.707Z,16968.00
2022-08-22T10:02:34.646Z,17312.00
2022-08-22T10:03:34.817Z,17568.00
2022-08-22T10:04:34.612Z,17824.00
2022-08-22T10:05:40.592Z,18048.00
2022-08-22T10:06:34.640Z,18272.00
2022-08-22T10:07:34.887Z,18464.00
2022-08-22T10:08:34.614Z,18624.00
2022-08-22T10:09:34.616Z,18592.00
2022-08-22T10:10:34.596Z,18464.00
2022-08-22T10:11:34.578Z,18272.00
2022-08-22T10:12:36.016Z,18112.00
2022-08-22T10:13:34.510Z,18112.00
2022-08-22T10:14:34.528Z,18176.00
2022-08-22T10:15:34.530Z,18240.00
2022-08-22T10:16:34.488Z,18336.00
2022-08-22T10:17:34.488Z,18368.00
2022-08-22T10:18:34.469Z,18336.00
2022-08-22T10:19:34.463Z,18176.00
2022-08-22T10:20:34.445Z,18048.00
2022-08-22T10:21:35.808Z,17984.00
2022-08-22T10:22:34.421Z,18016.00
2022-08-22T10:23:34.405Z,18176.00
2022-08-22T10:24:36.019Z,18368.00
2022-08-22T10:25:34.413Z,18400.00
2022-08-22T10:26:38.620Z,18400.00
2022-08-22T10:27:34.407Z,18400.00
2022-08-22T10:28:34.350Z,18272.00
2022-08-22T10:29:34.345Z,18208.00
2022-08-22T10:30:34.320Z,18368.00
2022-08-22T10:31:34.311Z,18528.00
2022-08-22T10:32:34.316Z,18656.00
2022-08-22T10:33:34.325Z,18624.00
2022-08-22T10:34:34.284Z,18464.00
2022-08-22T10:35:34.386Z,18208.00
2022-08-22T10:36:34.307Z,17984.00
2022-08-22T10:37:34.274Z,17760.00
2022-08-22T10:38:34.350Z,17600.00
2022-08-22T10:39:34.304Z,17440.00
2022-08-22T10:40:34.218Z,17792.00
2022-08-22T10:41:34.212Z,18208.00
2022-08-22T10:42:35.265Z,18272.00
2022-08-22T10:43:34.266Z,18304.00
2022-08-22T10:44:34.188Z,18688.00
2022-08-22T10:45:36.298Z,19296.00
2022-08-22T10:46:34.144Z,19552.00
2022-08-22T10:47:34.190Z,19584.00
2022-08-22T10:48:34.123Z,19456.00
2022-08-22T10:49:34.146Z,19072.00
2022-08-22T10:50:34.109Z,18848.00
2022-08-22T10:51:34.169Z,18816.00
2022-08-22T10:52:34.117Z,18688.00
2022-08-22T10:53:34.818Z,18688.00
2022-08-22T10:54:34.211Z,18752.00
2022-08-22T10:55:34.066Z,18944.00
2022-08-22T10:56:34.782Z,19232.00
2022-08-22T10:57:34.136Z,19360.00
2022-08-22T10:58:34.070Z,19200.00
2022-08-22T10:59:34.010Z,18688.00
2022-08-22T11:00:34.042Z,17916.00
2022-08-22T11:01:38.368Z,17296.00
2022-08-22T11:02:34.105Z,16768.00
2022-08-22T11:03:34.196Z,16564.00
2022-08-22T11:04:34.019Z,16640.00
2022-08-22T11:05:33.940Z,17088.00
2022-08-22T11:06:33.931Z,17512.00
2022-08-22T11:07:33.916Z,17952.00
2022-08-22T11:08:34.875Z,18012.00
2022-08-22T11:09:37.135Z,17844.00
2022-08-22T11:10:34.959Z,17600.00
2022-08-22T11:11:33.872Z,17180.00
2022-08-22T11:12:35.791Z,16664.00
2022-08-22T11:13:33.960Z,16104.00
2022-08-22T11:14:34.781Z,15496.00
2022-08-22T11:15:34.907Z,15040.00
2022-08-22T11:16:36.573Z,14596.00
2022-08-22T11:17:40.737Z,14312.00
2022-08-22T11:18:33.908Z,13864.00
2022-08-22T11:19:33.914Z,13508.00
2022-08-22T11:20:33.773Z,13232.00
2022-08-22T11:21:33.794Z,13036.00
2022-08-22T11:22:33.757Z,12836.00
2022-08-22T11:23:33.831Z,12664.00
2022-08-22T11:24:35.665Z,12524.00
2022-08-22T11:25:38.626Z,12440.00
2022-08-22T11:26:41.705Z,12444.00
2022-08-22T11:27:37.748Z,12424.00
2022-08-22T11:28:33.747Z,12256.00
2022-08-22T11:29:33.674Z,12156.00
2022-08-22T11:30:36.343Z,12072.00
2022-08-22T11:31:36.651Z,12064.00
2022-08-22T11:32:33.906Z,12072.00
2022-08-22T11:33:46.717Z,12004.00
2022-08-22T11:34:33.626Z,11984.00
2022-08-22T11:35:33.607Z,12048.00
2022-08-22T11:36:34.292Z,12044.00
2022-08-22T11:37:42.879Z,12040.00
2022-08-22T11:38:36.211Z,12100.00
2022-08-22T11:39:34.074Z,12112.00
2022-08-22T11:40:34.352Z,12224.00
2022-08-22T11:41:33.733Z,12412.00
2022-08-22T11:42:33.667Z,12676.00
2022-08-22T11:43:33.968Z,12968.00
2022-08-22T11:44:34.340Z,13316.00
2022-08-22T11:45:34.000Z,13640.00
2022-08-22T11:46:33.842Z,14044.00
2022-08-22T11:47:33.854Z,14404.00
2022-08-22T11:48:33.727Z,14728.00
2022-08-22T11:49:34.471Z,15016.00
2022-08-22T11:50:33.569Z,15076.00
2022-08-22T11:51:34.132Z,15116.00
2022-08-22T11:52:33.675Z,15124.00
2022-08-22T11:53:33.824Z,14808.00
2022-08-22T11:54:33.781Z,14320.00
2022-08-22T11:55:34.561Z,14104.00
2022-08-22T11:56:33.801Z,13972.00
2022-08-22T11:57:33.906Z,13904.00
2022-08-22T11:58:33.662Z,13496.00
2022-08-22T11:59:33.625Z,13000.00
2022-08-22T12:00:33.730Z,13392.00
2022-08-22T12:01:34.429Z,13688.00
2022-08-22T12:02:33.764Z,13972.00
2022-08-22T12:03:33.783Z,14440.00
2022-08-22T12:04:33.662Z,14944.00
2022-08-22T12:05:34.471Z,15464.00
2022-08-22T12:06:34.675Z,15948.00
2022-08-22T12:07:33.368Z,16384.00
2022-08-22T12:08:33.631Z,17024.00
2022-08-22T12:09:33.840Z,17596.00
2022-08-22T12:10:33.729Z,17360.00
2022-08-22T12:11:33.757Z,17824.00
2022-08-22T12:12:33.664Z,17636.00
2022-08-22T12:13:34.737Z,17836.00
2022-08-22T12:14:33.414Z,18144.00
2022-08-22T12:15:33.753Z,18048.00
2022-08-22T12:16:33.511Z,18144.00
2022-08-22T12:17:55.576Z,18272.00
2022-08-22T12:18:33.240Z,18464.00
2022-08-22T12:19:33.271Z,19008.00
2022-08-22T12:20:33.577Z,19168.00
2022-08-22T12:21:33.502Z,19168.00
2022-08-22T12:22:33.563Z,19072.00
2022-08-22T12:23:43.407Z,19040.00
2022-08-22T12:24:33.356Z,19008.00
2022-08-22T12:25:33.124Z,19296.00
2022-08-22T12:26:34.965Z,19968.00
2022-08-22T12:27:33.132Z,19680.00
2022-08-22T12:28:39.107Z,19488.00
2022-08-22T12:29:34.068Z,19360.00
2022-08-22T12:30:33.018Z,19360.00
2022-08-22T12:31:33.047Z,19680.00
2022-08-22T12:32:34.152Z,20352.00
2022-08-22T12:33:33.217Z,20640.00
2022-08-22T12:34:32.950Z,20256.00
2022-08-22T12:35:33.034Z,20608.00
2022-08-22T12:36:33.287Z,20448.00
2022-08-22T12:37:33.116Z,21568.00
2022-08-22T12:38:37.993Z,43104.00
2022-08-22T12:39:32.953Z,74432.00
2022-08-22T12:40:33.381Z,86208.00
2022-08-22T12:41:34.714Z,78336.00
2022-08-22T12:42:34.014Z,80672.00
2022-08-22T12:43:32.896Z,79360.00
2022-08-22T12:44:33.636Z,75808.00
2022-08-22T12:45:33.152Z,76704.00
2022-08-22T12:46:33.150Z,80000.00
2022-08-22T12:47:34.303Z,74528.00
2022-08-22T12:48:32.871Z,77152.00
2022-08-22T12:49:32.786Z,75616.00
2022-08-22T12:50:33.838Z,76544.00
2022-08-22T12:51:33.814Z,76640.00
2022-08-22T12:52:33.219Z,58144.00